Time;durP1;ratioP1;P1;durP2;ratioP2;P2;SDS_P1;SDS_P2;PMS_P1;PMS_P2;Temp;Humidity;BMP_temperature;BMP_pressure;BME280_temperature;BME280_humidity;BME280_pressure;Samples;Min_cycle;Max_cycle;Signal;HPM_P1;HPM_P2
2023/01/12 00:02:13;;;;;;;10.73;4.55;;;6.40;99.90;;;;;;5034745;28;20021;-78
2023/01/12 00:04:39;;;;;;;8.38;4.40;;;6.40;99.90;;;;;;5030236;28;20037;-78
2023/01/12 00:07:07;;;;;;;8.57;4.13;;;6.30;99.90;;;;;;5030004;28;20026;-78
2023/01/12 00:09:33;;;;;;;7.72;3.97;;;6.30;99.90;;;;;;5029737;28;20064;-77
2023/01/12 00:11:58;;;;;;;6.90;3.88;;;6.20;99.90;;;;;;5031883;28;20087;-78
2023/01/12 00:14:24;;;;;;;5.97;3.70;;;6.20;99.90;;;;;;5045201;28;20646;-77
2023/01/12 00:16:50;;;;;;;7.55;3.70;;;6.20;99.90;;;;;;5045427;28;20395;-78
2023/01/12 00:19:17;;;;;;;6.80;3.35;;;6.10;99.90;;;;;;5049978;28;20068;-78
2023/01/12 00:24:35;;;;;;;3.78;2.63;;;6.10;99.90;;;;;;5050310;28;20117;-78
2023/01/12 00:27:03;;;;;;;4.47;2.63;;;6.00;99.90;;;;;;5044343;28;20018;-78
2023/01/12 00:29:29;;;;;;;5.30;3.17;;;6.00;99.90;;;;;;5030232;28;20045;-78
2023/01/12 00:31:56;;;;;;;7.30;3.47;;;6.00;99.90;;;;;;5029677;28;20025;-78
2023/01/12 00:34:23;;;;;;;5.43;3.17;;;5.90;99.90;;;;;;5044774;28;20055;-78
2023/01/12 00:36:49;;;;;;;6.60;3.72;;;5.90;99.90;;;;;;5048276;28;20025;-78
2023/01/12 00:39:16;;;;;;;4.20;3.08;;;5.80;99.90;;;;;;5049122;28;20422;-78
2023/01/12 00:47:12;;;;;;;5.97;2.88;;;5.80;99.90;;;;;;5050369;28;20406;-78
2023/01/12 00:49:39;;;;;;;3.60;2.53;;;5.70;99.90;;;;;;5045523;28;20028;-78
2023/01/12 00:52:06;;;;;;;3.03;2.13;;;5.70;99.90;;;;;;5042029;28;20021;-78
2023/01/12 00:54:33;;;;;;;3.35;1.90;;;5.70;99.90;;;;;;5050286;28;20048;-78
2023/01/12 00:56:59;;;;;;;3.97;2.38;;;5.70;99.90;;;;;;5052763;28;20051;-78
2023/01/12 00:59:25;;;;;;;3.25;1.80;;;5.60;99.90;;;;;;5047793;28;20022;-78
2023/01/12 01:01:51;;;;;;;3.58;2.00;;;5.50;99.90;;;;;;5045344;28;20078;-78
2023/01/12 01:04:16;;;;;;;3.08;1.83;;;5.60;99.90;;;;;;5053200;28;20410;-78
2023/01/12 01:06:42;;;;;;;2.40;1.85;;;5.50;99.90;;;;;;5048735;28;20156;-78
2023/01/12 01:09:08;;;;;;;1.92;1.50;;;5.40;99.90;;;;;;5052192;28;20036;-78
2023/01/12 01:11:34;;;;;;;1.80;1.48;;;5.30;99.90;;;;;;5053409;28;20022;-80
2023/01/12 01:14:01;;;;;;;1.98;1.30;;;5.20;99.90;;;;;;5053309;28;20104;-80
2023/01/12 01:16:27;;;;;;;2.50;1.40;;;5.10;99.90;;;;;;5052175;28;20524;-80
2023/01/12 01:18:53;;;;;;;4.18;1.75;;;5.20;99.90;;;;;;5053298;28;20028;-80
2023/01/12 01:21:18;;;;;;;2.67;1.70;;;5.20;99.90;;;;;;5052939;28;20029;-80
2023/01/12 01:23:44;;;;;;;2.50;1.50;;;5.10;99.90;;;;;;5053507;28;20023;-80
2023/01/12 01:26:14;;;;;;;1.83;1.42;;;5.10;99.90;;;;;;5053180;28;20020;-80
2023/01/12 01:28:40;;;;;;;2.50;1.60;;;5.40;99.90;;;;;;5052636;28;20048;-80
2023/01/12 01:31:09;;;;;;;2.17;1.10;;;5.40;99.90;;;;;;5048226;28;20036;-78
2023/01/12 01:33:35;;;;;;;4.15;1.55;;;5.40;99.90;;;;;;5052481;28;20037;-78
2023/01/12 01:36:01;;;;;;;3.25;1.40;;;5.30;99.90;;;;;;5041724;28;20043;-78
2023/01/12 01:38:27;;;;;;;3.05;1.73;;;5.30;99.90;;;;;;5039459;28;20047;-78
2023/01/12 01:40:53;;;;;;;3.63;1.63;;;5.30;99.90;;;;;;5052380;28;20048;-80
2023/01/12 01:43:22;;;;;;;3.95;1.80;;;5.20;99.90;;;;;;5047007;28;20017;-80
2023/01/12 01:46:01;;;;;;;4.88;1.77;;;5.30;99.90;;;;;;5045990;28;20486;-78
2023/01/12 01:48:31;;;;;;;3.75;1.70;;;5.20;99.90;;;;;;5047749;28;20518;-78
2023/01/12 01:51:01;;;;;;;3.95;1.83;;;5.20;99.90;;;;;;5048048;28;20516;-78
2023/01/12 01:53:30;;;;;;;2.95;2.10;;;5.10;99.90;;;;;;5053130;28;20025;-78
2023/01/12 01:56:03;;;;;;;4.85;2.15;;;5.10;99.90;;;;;;5051800;28;20029;-78
2023/01/12 01:58:38;;;;;;;4.18;2.33;;;5.10;99.90;;;;;;5052580;28;20108;-78
2023/01/12 02:01:04;;;;;;;3.90;2.03;;;5.10;99.90;;;;;;5045988;28;20499;-78
2023/01/12 02:03:31;;;;;;;4.30;2.00;;;5.10;99.90;;;;;;5047631;28;20530;-78
2023/01/12 02:05:57;;;;;;;6.28;2.10;;;5.00;99.90;;;;;;5030139;28;20515;-78
2023/01/12 02:08:29;;;;;;;3.75;2.38;;;5.10;99.90;;;;;;5039992;28;20568;-78
2023/01/12 02:10:56;;;;;;;3.10;2.13;;;5.20;99.90;;;;;;5034833;28;20518;-78
2023/01/12 02:16:19;;;;;;;4.85;2.35;;;5.10;99.90;;;;;;5052409;28;20090;-80
2023/01/12 02:19:12;;;;;;;5.10;2.65;;;5.00;99.90;;;;;;5051867;28;20521;-78
2023/01/12 02:21:56;;;;;;;3.85;2.20;;;5.00;99.90;;;;;;5047651;28;20574;-78
2023/01/12 02:24:38;;;;;;;4.68;2.13;;;4.90;99.90;;;;;;5032309;28;20423;-78
2023/01/12 02:27:44;;;;;;;4.65;2.10;;;4.90;99.90;;;;;;5049025;28;20044;-78
2023/01/12 02:30:34;;;;;;;3.50;1.83;;;4.90;99.90;;;;;;5049557;28;20045;-80
2023/01/12 02:33:15;;;;;;;3.92;1.77;;;4.80;99.90;;;;;;5033602;28;20148;-78
2023/01/12 02:35:41;;;;;;;;;;;4.80;99.90;;;;;;5040077;28;20629;-78
2023/01/12 02:38:31;;;;;;;2.33;1.40;;;4.90;99.90;;;;;;5032674;28;19979;-78
2023/01/12 02:42:39;;;;;;;2.35;1.27;;;4.90;99.90;;;;;;5049230;28;20033;-78
2023/01/12 02:44:28;;;;;;;2.80;1.50;;;4.80;99.90;;;;;;5048497;28;20033;-80
2023/01/12 02:46:59;;;;;;;4.30;1.70;;;4.90;99.90;;;;;;5048830;28;20049;-78
2023/01/12 02:49:28;;;;;;;2.80;1.93;;;4.80;99.90;;;;;;5049059;28;20055;-78
2023/01/12 02:52:03;;;;;;;3.05;1.70;;;4.70;99.90;;;;;;5049049;28;20138;-78
2023/01/12 02:54:31;;;;;;;2.95;1.13;;;4.70;99.90;;;;;;5031919;28;20037;-78
2023/01/12 02:57:03;;;;;;;1.92;1.17;;;4.70;99.90;;;;;;5049188;28;20137;-81
2023/01/12 02:59:41;;;;;;;1.77;1.20;;;4.60;99.90;;;;;;5039774;28;20123;-80
2023/01/12 03:02:11;;;;;;;2.17;1.40;;;4.60;99.90;;;;;;5049935;28;20071;-80
2023/01/12 03:04:36;;;;;;;2.47;1.10;;;4.70;99.90;;;;;;5066547;28;20048;-80
2023/01/12 03:07:02;;;;;;;1.50;1.20;;;4.60;99.90;;;;;;5051292;28;20061;-80
2023/01/12 03:09:40;;;;;;;2.70;1.30;;;4.60;99.90;;;;;;5050649;28;20444;-80
2023/01/12 03:12:12;;;;;;;1.35;1.15;;;4.60;99.90;;;;;;5045739;28;20060;-80
2023/01/12 03:14:43;;;;;;;2.35;1.10;;;4.70;99.90;;;;;;5057522;28;20493;-80
2023/01/12 03:17:15;;;;;;;1.55;1.40;;;4.60;99.90;;;;;;5049149;28;20183;-78
2023/01/12 03:19:44;;;;;;;1.67;1.30;;;4.50;99.90;;;;;;5050139;28;20025;-80
2023/01/12 03:22:13;;;;;;;2.50;1.58;;;4.50;99.90;;;;;;5046191;28;20380;-80
2023/01/12 03:24:45;;;;;;;2.42;1.27;;;4.50;99.90;;;;;;5043437;28;20029;-79
2023/01/12 03:27:20;;;;;;;3.70;1.50;;;4.40;99.90;;;;;;5045639;28;20029;-80
2023/01/12 03:29:57;;;;;;;4.57;2.42;;;4.40;99.90;;;;;;5046825;28;20115;-80
2023/01/12 03:32:23;;;;;;;3.42;1.95;;;4.50;99.90;;;;;;5045635;28;20506;-80
2023/01/12 03:34:49;;;;;;;5.88;2.95;;;4.30;99.90;;;;;;5044114;28;20018;-80
2023/01/12 03:37:23;;;;;;;5.15;3.20;;;4.30;99.90;;;;;;5050968;28;20029;-80
2023/01/12 03:40:07;;;;;;;5.30;3.40;;;4.30;99.90;;;;;;5050806;28;20025;-80
2023/01/12 03:42:39;;;;;;;7.18;3.70;;;4.30;99.90;;;;;;5048879;28;20037;-80
2023/01/12 03:45:13;;;;;;;;;;;4.30;99.90;;;;;;5034577;28;20029;-80
2023/01/12 03:47:41;;;;;;;5.90;3.65;;;4.20;99.90;;;;;;5044329;28;19970;-80
2023/01/12 03:50:16;;;;;;;6.00;3.20;;;4.20;99.90;;;;;;5045744;28;20026;-80
2023/01/12 03:52:44;;;;;;;4.28;3.05;;;4.10;99.90;;;;;;5043808;28;20030;-80
2023/01/12 03:55:13;;;;;;;5.47;3.17;;;4.10;99.90;;;;;;5042693;28;20096;-80
2023/01/12 03:57:39;;;;;;;7.35;3.10;;;4.10;99.90;;;;;;5049915;28;20028;-80
2023/01/12 04:00:08;;;;;;;6.03;3.25;;;4.10;99.90;;;;;;5049852;28;20099;-80
2023/01/12 04:02:34;;;;;;;8.25;3.78;;;4.10;99.90;;;;;;5029461;28;20025;-80
2023/01/12 04:04:59;;;;;;;6.95;3.55;;;4.10;99.90;;;;;;5041821;28;20487;-80
2023/01/12 04:07:25;;;;;;;6.07;4.05;;;4.00;99.90;;;;;;5050008;28;20498;-80
2023/01/12 04:09:51;;;;;;;7.88;3.80;;;3.90;99.90;;;;;;5050411;28;20072;-80
2023/01/12 04:12:17;;;;;;;6.20;3.40;;;4.00;99.90;;;;;;5045921;28;20025;-80
2023/01/12 04:14:44;;;;;;;4.57;2.88;;;3.80;99.90;;;;;;5048872;28;20074;-80
2023/01/12 04:17:15;;;;;;;5.15;3.13;;;3.90;99.90;;;;;;5049750;28;20064;-80
2023/01/12 04:19:41;;;;;;;4.85;2.97;;;3.90;99.90;;;;;;5049986;28;20017;-80
2023/01/12 04:24:51;;;;;;;6.05;3.60;;;3.80;99.90;;;;;;5050006;28;20493;-80
2023/01/12 04:27:17;;;;;;;4.88;2.92;;;3.80;99.90;;;;;;5049417;28;20055;-80
2023/01/12 04:29:44;;;;;;;5.32;3.53;;;3.90;99.90;;;;;;5046148;28;20048;-80
2023/01/12 04:32:10;;;;;;;4.97;3.30;;;3.80;99.90;;;;;;5052995;28;20017;-80
2023/01/12 04:34:37;;;;;;;6.57;3.58;;;3.80;99.90;;;;;;5051557;28;20030;-80
2023/01/12 04:37:04;;;;;;;5.40;3.22;;;3.70;99.90;;;;;;5053696;28;20066;-80
2023/01/12 04:39:29;;;;;;;5.22;3.25;;;3.70;99.90;;;;;;5053352;28;20499;-79
2023/01/12 04:41:55;;;;;;;6.93;3.45;;;3.80;99.90;;;;;;5053484;28;20039;-80
2023/01/12 04:44:21;;;;;;;6.65;3.28;;;3.70;99.90;;;;;;5053414;28;20029;-80
2023/01/12 04:46:50;;;;;;;6.45;3.60;;;3.80;99.90;;;;;;5053929;28;20025;-80
2023/01/12 04:49:16;;;;;;;9.57;4.00;;;3.80;99.90;;;;;;5053906;28;20033;-80
2023/01/12 04:51:42;;;;;;;7.97;3.88;;;3.80;99.90;;;;;;5048981;28;20023;-80
2023/01/12 04:54:11;;;;;;;6.50;3.80;;;3.70;99.90;;;;;;5046176;28;20025;-80
2023/01/12 04:56:37;;;;;;;7.50;4.20;;;3.70;99.90;;;;;;5033431;28;20029;-80
2023/01/12 04:59:03;;;;;;;9.20;4.82;;;3.60;99.90;;;;;;5047867;28;20449;-81
2023/01/12 05:01:29;;;;;;;7.75;4.13;;;3.60;99.90;;;;;;5042096;28;20523;-80
2023/01/12 05:03:56;;;;;;;6.85;3.33;;;3.70;99.90;;;;;;5047781;28;21293;-80
2023/01/12 05:06:23;;;;;;;6.35;3.75;;;3.60;99.90;;;;;;5053615;28;20032;-80
2023/01/12 05:11:33;;;;;;;6.07;3.60;;;3.60;99.90;;;;;;5053047;28;20581;-81
2023/01/12 05:13:59;;;;;;;8.77;3.90;;;3.60;99.90;;;;;;5052987;28;20052;-80
2023/01/12 05:16:26;;;;;;;5.65;3.17;;;3.50;99.90;;;;;;5053065;28;20025;-80
2023/01/12 05:18:53;;;;;;;6.80;4.35;;;3.50;99.90;;;;;;5051939;28;20021;-80
2023/01/12 05:21:21;;;;;;;6.53;3.67;;;3.60;99.90;;;;;;5053049;28;20036;-80
2023/01/12 05:23:47;;;;;;;7.18;3.33;;;3.60;99.90;;;;;;5051738;28;20029;-80
2023/01/12 05:26:14;;;;;;;7.63;3.60;;;3.60;99.90;;;;;;5053402;28;20105;-80
2023/01/12 05:28:40;;;;;;;8.52;4.43;;;3.50;99.90;;;;;;5048156;28;20071;-80
2023/01/12 05:31:13;;;;;;;6.43;3.60;;;3.40;99.90;;;;;;5046631;28;20033;-80
2023/01/12 05:33:41;;;;;;;8.02;3.78;;;3.50;99.90;;;;;;5051636;28;20021;-80
2023/01/12 05:36:12;;;;;;;7.95;4.13;;;3.50;99.90;;;;;;5041525;28;20025;-80
2023/01/12 05:38:37;;;;;;;8.18;3.90;;;3.40;99.90;;;;;;5052949;28;20031;-80
2023/01/12 05:41:06;;;;;;;5.47;3.60;;;3.40;99.90;;;;;;5049646;28;20032;-80
2023/01/12 05:43:50;;;;;;;7.38;3.63;;;3.30;99.90;;;;;;5040009;28;20053;-80
2023/01/12 05:46:17;;;;;;;6.72;3.10;;;3.30;99.90;;;;;;5068083;28;20057;-80
2023/01/12 05:48:42;;;;;;;5.03;2.97;;;3.30;99.90;;;;;;5052584;28;20050;-80
2023/01/12 05:51:10;;;;;;;4.35;2.72;;;3.50;99.90;;;;;;5067648;28;20025;-80
2023/01/12 05:53:36;;;;;;;4.88;3.03;;;3.60;99.90;;;;;;5052379;28;20183;-80
2023/01/12 05:56:14;;;;;;;6.72;3.00;;;3.50;99.90;;;;;;5052184;28;20029;-80
2023/01/12 05:58:40;;;;;;;4.68;2.78;;;3.50;99.90;;;;;;5052406;28;20029;-80
2023/01/12 06:01:09;;;;;;;4.47;2.63;;;3.50;99.90;;;;;;5045997;28;20164;-80
2023/01/12 06:03:35;;;;;;;5.07;2.92;;;3.50;99.90;;;;;;5045906;28;20054;-80
2023/01/12 06:06:02;;;;;;;4.50;2.85;;;3.50;99.90;;;;;;5051880;28;20031;-80
2023/01/12 06:08:27;;;;;;;5.18;2.97;;;3.40;99.90;;;;;;5052493;28;20013;-80
2023/01/12 06:10:53;;;;;;;7.18;3.30;;;3.30;99.90;;;;;;5051202;28;20039;-80
2023/01/12 06:16:05;;;;;;;3.50;2.53;;;3.60;99.90;;;;;;5052705;28;20406;-80
2023/01/12 06:18:35;;;;;;;4.20;2.55;;;3.30;99.90;;;;;;5050649;28;20060;-80
2023/01/12 06:21:02;;;;;;;4.28;2.53;;;3.20;99.90;;;;;;5041285;28;20025;-80
2023/01/12 06:23:28;;;;;;;4.85;3.17;;;3.20;99.90;;;;;;5049694;28;20025;-80
2023/01/12 06:25:54;;;;;;;3.47;2.35;;;3.20;99.90;;;;;;5051838;28;20036;-80
2023/01/12 06:28:20;;;;;;;4.25;2.60;;;3.20;99.90;;;;;;5046828;28;20075;-80
2023/01/12 06:30:57;;;;;;;4.10;2.80;;;3.20;99.90;;;;;;5037496;28;20045;-80
2023/01/12 06:33:24;;;;;;;3.65;2.40;;;3.00;99.90;;;;;;5050609;28;20099;-80
2023/01/12 06:35:51;;;;;;;3.72;2.60;;;3.10;99.90;;;;;;5048497;28;20030;-80
2023/01/12 06:38:17;;;;;;;3.60;2.42;;;3.10;99.90;;;;;;5046844;28;20033;-79
2023/01/12 06:40:43;;;;;;;4.35;2.45;;;3.10;99.90;;;;;;5043695;28;20227;-79
2023/01/12 06:43:08;;;;;;;4.32;2.67;;;3.10;99.90;;;;;;5051545;28;20410;-80
2023/01/12 06:45:34;;;;;;;4.60;2.67;;;3.10;99.90;;;;;;5051700;28;20049;-80
2023/01/12 06:48:00;;;;;;;4.97;2.95;;;3.10;99.90;;;;;;5051125;28;20055;-80
2023/01/12 06:50:25;;;;;;;3.70;2.63;;;3.20;99.90;;;;;;5051574;28;20548;-80
2023/01/12 06:52:51;;;;;;;5.15;3.35;;;3.10;99.90;;;;;;5051701;28;20455;-80
2023/01/12 06:55:17;;;;;;;6.28;3.60;;;3.10;99.90;;;;;;5050691;28;20021;-80
2023/01/12 06:57:43;;;;;;;4.18;3.00;;;3.10;99.90;;;;;;5051345;28;20402;-80
2023/01/12 07:00:13;;;;;;;5.63;3.28;;;3.10;99.90;;;;;;5051730;28;20093;-80
2023/01/12 07:02:38;;;;;;;7.30;4.25;;;3.10;99.90;;;;;;5032341;28;20061;-80
2023/01/12 07:05:05;;;;;;;7.75;4.25;;;3.10;99.90;;;;;;5031199;28;20053;-80
2023/01/12 07:07:30;;;;;;;7.78;4.60;;;3.10;99.90;;;;;;5031511;28;20021;-79
2023/01/12 07:09:56;;;;;;;7.30;4.60;;;3.10;99.90;;;;;;5048497;28;20070;-80
2023/01/12 07:12:22;;;;;;;9.93;5.15;;;3.10;99.90;;;;;;5043786;28;20017;-80
2023/01/12 07:14:47;;;;;;;8.00;4.63;;;3.00;99.90;;;;;;5045988;28;20567;-80
2023/01/12 07:17:13;;;;;;;6.55;4.43;;;3.00;99.90;;;;;;5050214;28;20513;-80
2023/01/12 07:19:39;;;;;;;6.95;4.93;;;2.90;99.90;;;;;;5050736;28;20491;-79
2023/01/12 07:22:04;;;;;;;10.25;5.18;;;3.00;99.90;;;;;;5051061;28;20564;-80
2023/01/12 07:24:30;;;;;;;8.98;5.22;;;3.00;99.90;;;;;;5050627;28;20029;-80
2023/01/12 07:26:57;;;;;;;8.30;5.15;;;3.00;99.90;;;;;;5050540;28;20494;-80
2023/01/12 07:29:24;;;;;;;9.20;5.50;;;3.10;99.90;;;;;;5050498;28;20110;-80
2023/01/12 07:31:49;;;;;;;11.07;5.70;;;3.00;99.90;;;;;;5046281;28;20028;-80
2023/01/12 07:34:15;;;;;;;12.60;6.07;;;3.00;99.90;;;;;;5057152;28;20120;-80
2023/01/12 07:36:41;;;;;;;14.52;6.65;;;3.00;99.90;;;;;;5046072;28;20079;-80
2023/01/12 07:39:08;;;;;;;11.98;6.72;;;3.10;99.90;;;;;;5041292;28;20028;-79
2023/01/12 07:44:18;;;;;;;13.52;6.55;;;3.00;99.90;;;;;;5049996;28;20103;-80
2023/01/12 07:46:45;;;;;;;11.20;6.50;;;3.10;99.90;;;;;;5050842;28;20029;-79
2023/01/12 07:49:10;;;;;;;13.40;6.65;;;3.10;99.90;;;;;;5046900;28;20025;-79
2023/01/12 07:51:36;;;;;;;13.10;6.15;;;3.10;99.90;;;;;;5049914;28;20489;-80
2023/01/12 07:54:02;;;;;;;12.93;6.43;;;3.10;99.90;;;;;;5048397;28;20510;-79
2023/01/12 07:56:27;;;;;;;10.10;6.25;;;3.20;99.90;;;;;;5027883;28;20021;-80
2023/01/12 07:58:53;;;;;;;10.73;5.60;;;3.10;99.90;;;;;;5049616;28;20056;-80
2023/01/12 08:01:19;;;;;;;8.50;5.47;;;3.30;99.90;;;;;;5041464;28;20522;-80
2023/01/12 08:03:44;;;;;;;11.13;5.85;;;3.60;99.90;;;;;;5051616;28;20553;-80
2023/01/12 08:06:10;;;;;;;12.45;5.80;;;3.90;99.90;;;;;;5036966;28;20025;-80
2023/01/12 08:08:36;;;;;;;11.43;5.95;;;3.80;99.90;;;;;;5048469;28;20021;-80
2023/01/12 08:11:07;;;;;;;11.77;6.38;;;3.80;99.90;;;;;;5045547;28;20025;-79
2023/01/12 08:13:33;;;;;;;10.40;5.72;;;3.90;99.90;;;;;;5054755;28;20055;-80
2023/01/12 08:16:05;;;;;;;10.48;5.70;;;3.90;99.90;;;;;;5049103;28;20033;-79
2023/01/12 08:19:02;;;;;;;12.02;6.40;;;3.90;99.90;;;;;;5048568;28;20121;-80
2023/01/12 08:21:33;;;;;;;10.48;6.30;;;3.80;99.90;;;;;;5048636;28;20025;-80
2023/01/12 08:24:00;;;;;;;11.05;6.57;;;3.80;99.90;;;;;;5044109;28;20079;-80
2023/01/12 08:26:34;;;;;;;10.90;5.95;;;3.90;99.90;;;;;;5047030;28;20025;-81
2023/01/12 08:29:30;;;;;;;11.23;6.60;;;4.00;99.90;;;;;;5043124;28;20069;-80
2023/01/12 08:32:03;;;;;;;10.93;6.60;;;4.20;99.90;;;;;;5029371;28;20032;-81
2023/01/12 08:34:29;;;;;;;12.88;6.65;;;4.80;99.90;;;;;;5031021;28;20053;-81
2023/01/12 08:36:57;;;;;;;10.27;5.80;;;4.80;99.90;;;;;;5041042;28;20340;-80
2023/01/12 08:39:23;;;;;;;10.75;6.35;;;4.80;99.90;;;;;;5030515;28;20064;-80
2023/01/12 08:41:49;;;;;;;9.75;5.75;;;4.70;99.90;;;;;;5048705;28;20025;-80
2023/01/12 08:44:15;;;;;;;9.15;5.07;;;4.80;99.90;;;;;;5048709;28;20082;-81
2023/01/12 08:46:50;;;;;;;7.85;4.75;;;5.00;99.90;;;;;;5036622;28;20057;-81
2023/01/12 08:49:19;;;;;;;6.22;4.30;;;5.50;99.90;;;;;;5045896;28;20026;-80
2023/01/12 08:51:45;;;;;;;7.03;4.85;;;5.50;99.90;;;;;;5046744;28;20025;-80
2023/01/12 08:54:14;;;;;;;6.07;4.55;;;5.50;99.90;;;;;;5048271;28;20029;-80
2023/01/12 08:56:39;;;;;;;6.93;4.63;;;6.10;99.90;;;;;;5048961;28;20069;-80
2023/01/12 08:59:05;;;;;;;8.05;4.13;;;5.90;99.90;;;;;;5046423;28;20075;-80
2023/01/12 09:01:32;;;;;;;7.72;4.03;;;5.70;99.90;;;;;;5049129;28;20025;-80
2023/01/12 09:03:58;;;;;;;7.25;4.03;;;5.70;99.90;;;;;;5048457;28;20037;-81
2023/01/12 09:06:26;;;;;;;5.55;3.47;;;5.80;99.90;;;;;;5048060;28;20024;-80
2023/01/12 09:08:54;;;;;;;6.38;3.78;;;5.70;99.90;;;;;;5031517;28;20511;-80
2023/01/12 09:11:20;;;;;;;6.47;3.35;;;5.70;99.90;;;;;;5044242;28;20462;-81
2023/01/12 09:13:45;;;;;;;4.10;3.35;;;7.20;99.90;;;;;;5048335;28;20056;-80
2023/01/12 09:16:13;;;;;;;4.40;2.95;;;9.30;99.90;;;;;;5048424;28;20394;-81
2023/01/12 09:18:40;;;;;;;6.03;3.15;;;9.70;99.90;;;;;;5046940;28;20502;-81
2023/01/12 09:21:08;;;;;;;6.78;3.50;;;8.70;99.90;;;;;;5044879;28;20025;-81
2023/01/12 09:23:34;;;;;;;6.25;3.58;;;9.20;99.90;;;;;;5052362;28;20021;-81
2023/01/12 09:26:05;;;;;;;10.48;4.50;;;10.40;99.90;;;;;;5051071;28;20416;-80
2023/01/12 09:28:31;;;;;;;6.28;4.00;;;11.10;99.90;;;;;;5051701;28;20040;-81
2023/01/12 09:31:08;;;;;;;6.82;4.15;;;10.20;99.90;;;;;;5051856;28;20041;-81
2023/01/12 09:33:35;;;;;;;6.38;4.13;;;8.80;99.90;;;;;;5034449;28;20040;-81
2023/01/12 09:36:09;;;;;;;7.25;4.80;;;8.10;99.90;;;;;;5054807;28;20057;-80
2023/01/12 09:38:37;;;;;;;8.00;4.93;;;8.00;99.90;;;;;;5043123;28;20039;-81
2023/01/12 09:41:15;;;;;;;8.38;5.40;;;7.70;99.90;;;;;;5045890;28;20041;-81
2023/01/12 09:49:22;;;;;;;9.50;6.13;;;7.00;99.90;;;;;;5051685;28;20020;-80
2023/01/12 09:51:54;;;;;;;9.07;5.32;;;7.40;99.90;;;;;;5051633;28;20078;-81
2023/01/12 09:54:20;;;;;;;9.98;5.90;;;7.20;99.90;;;;;;5046510;28;20081;-81
2023/01/12 09:56:53;;;;;;;8.38;5.65;;;7.40;99.90;;;;;;5039162;28;20033;-80
2023/01/12 09:59:22;;;;;;;7.65;4.95;;;7.20;99.90;;;;;;5050597;28;20017;-80
2023/01/12 10:01:51;;;;;;;7.13;4.20;;;7.20;99.90;;;;;;5051301;28;20035;-79
2023/01/12 10:04:17;;;;;;;9.95;5.32;;;7.40;99.90;;;;;;5050735;28;20017;-81
2023/01/12 10:06:43;;;;;;;8.10;4.45;;;7.60;99.90;;;;;;5050635;28;20036;-80
2023/01/12 10:09:14;;;;;;;6.60;4.25;;;7.90;99.90;;;;;;5050871;28;20076;-80
2023/01/12 10:12:05;;;;;;;6.13;4.15;;;7.80;99.90;;;;;;5050299;28;20033;-80
2023/01/12 10:14:31;;;;;;;;;;;7.80;99.90;;;;;;5051079;28;20099;-80
2023/01/12 10:17:08;;;;;;;7.22;3.85;;;7.80;99.90;;;;;;5045800;28;19909;-80
2023/01/12 10:19:42;;;;;;;5.38;4.20;;;7.90;99.90;;;;;;5041854;28;20562;-80
2023/01/12 10:22:37;;;;;;;7.95;3.63;;;7.90;99.90;;;;;;5045895;28;20128;-80
2023/01/12 10:25:33;;;;;;;8.90;4.00;;;7.90;99.90;;;;;;5046770;28;20036;-81
2023/01/12 10:28:05;;;;;;;5.47;3.15;;;7.90;99.90;;;;;;5047586;28;20021;-81
2023/01/12 10:30:38;;;;;;;;;;;8.00;99.90;;;;;;5038644;28;20045;-80
2023/01/12 10:33:12;;;;;;;9.73;5.45;;;8.20;99.90;;;;;;5050413;28;19923;-81
2023/01/12 10:35:54;;;;;;;11.98;6.95;;;8.20;99.90;;;;;;5049352;28;20122;-81
2023/01/12 10:38:22;;;;;;;11.73;6.70;;;8.40;99.90;;;;;;5041985;28;20060;-81
2023/01/12 10:41:15;;;;;;;9.73;6.50;;;8.40;99.90;;;;;;5045947;28;20025;-80
2023/01/12 10:43:42;;;;;;;8.18;5.28;;;8.40;99.90;;;;;;5044746;28;20048;-81
2023/01/12 10:46:18;;;;;;;7.90;4.82;;;8.50;99.90;;;;;;5050215;28;20109;-81
2023/01/12 10:48:48;;;;;;;7.30;4.20;;;8.50;99.90;;;;;;5048366;28;20029;-80
2023/01/12 10:51:28;;;;;;;6.40;4.03;;;8.60;99.90;;;;;;5049158;28;20048;-80
2023/01/12 10:54:24;;;;;;;9.02;4.82;;;8.70;99.90;;;;;;5046946;28;20360;-81
2023/01/12 10:57:11;;;;;;;7.95;4.18;;;9.00;99.90;;;;;;5047465;28;20052;-80
2023/01/12 10:59:39;;;;;;;6.13;3.22;;;9.00;99.90;;;;;;5045448;28;20090;-80
2023/01/12 11:02:05;;;;;;;7.00;3.30;;;8.90;99.90;;;;;;5045950;28;20104;-80
2023/01/12 11:04:46;;;;;;;6.57;3.83;;;9.10;99.90;;;;;;5049894;28;20039;-81
2023/01/12 11:07:30;;;;;;;5.55;2.97;;;9.10;99.90;;;;;;5048312;28;20022;-79
2023/01/12 11:10:16;;;;;;;6.97;4.28;;;9.20;99.90;;;;;;5045781;28;20025;-78
2023/01/12 11:12:42;;;;;;;5.25;3.17;;;9.40;99.90;;;;;;5038528;28;20055;-79
2023/01/12 11:15:11;;;;;;;5.65;3.53;;;9.40;99.90;;;;;;5049208;28;20098;-79
2023/01/12 11:18:38;;;;;;;3.55;2.83;;;9.60;99.90;;;;;;5048609;28;20031;-79
2023/01/12 11:21:16;;;;;;;7.88;3.42;;;9.70;99.90;;;;;;5042324;28;20033;-78
2023/01/12 11:23:45;;;;;;;6.50;3.15;;;9.90;99.90;;;;;;5019568;28;20025;-78
2023/01/12 11:26:25;;;;;;;6.65;2.97;;;9.90;99.90;;;;;;5045252;28;20561;-78
2023/01/12 11:28:54;;;;;;;7.00;3.35;;;9.80;99.90;;;;;;5044072;28;20133;-78
2023/01/12 11:31:31;;;;;;;5.32;2.58;;;9.80;99.90;;;;;;5003347;28;20084;-78
2023/01/12 11:34:09;;;;;;;4.50;2.78;;;9.70;99.90;;;;;;5021500;28;20035;-78
2023/01/12 11:36:43;;;;;;;3.85;2.08;;;9.90;99.90;;;;;;5024240;28;20068;-80
2023/01/12 11:39:15;;;;;;;3.75;1.98;;;9.80;99.90;;;;;;5019600;28;20059;-80
2023/01/12 11:41:40;;;;;;;;;;;9.70;99.90;;;;;;5017374;28;20037;-80
2023/01/12 11:44:29;;;;;;;3.30;1.70;;;9.70;99.90;;;;;;5026135;28;19916;-80
2023/01/12 11:47:07;;;;;;;2.13;1.77;;;9.50;99.90;;;;;;5025099;28;20064;-79
2023/01/12 11:49:51;;;;;;;9.00;2.60;;;9.80;99.90;;;;;;5023219;28;20051;-79
2023/01/12 11:52:17;;;;;;;2.60;1.85;;;9.90;99.90;;;;;;5022162;28;20038;-79
2023/01/12 11:54:43;;;;;;;1.95;1.45;;;9.80;99.90;;;;;;5017211;28;20060;-79
2023/01/12 11:57:35;;;;;;;5.20;1.83;;;9.80;99.90;;;;;;4996176;28;20030;-79
2023/01/12 12:00:21;;;;;;;3.60;1.83;;;9.80;99.90;;;;;;4995690;28;20045;-79
2023/01/12 12:02:55;;;;;;;3.50;2.30;;;9.80;99.90;;;;;;4995777;28;20049;-79
2023/01/12 12:05:21;;;;;;;3.65;1.40;;;9.80;99.90;;;;;;4997979;28;20045;-80
2023/01/12 12:07:49;;;;;;;2.03;1.42;;;9.70;99.90;;;;;;4996216;28;20065;-79
2023/01/12 12:10:28;;;;;;;2.58;1.30;;;9.70;99.90;;;;;;4989877;28;20022;-81
2023/01/12 12:13:12;;;;;;;1.60;1.20;;;9.80;99.90;;;;;;4997552;28;20030;-81
2023/01/12 12:15:46;;;;;;;2.13;1.30;;;9.80;99.90;;;;;;5004588;28;20022;-80
2023/01/12 12:18:38;;;;;;;5.28;1.27;;;10.00;99.90;;;;;;5008894;28;20034;-81
2023/01/12 12:21:04;;;;;;;5.50;2.00;;;10.30;99.90;;;;;;5004608;28;20061;-82
2023/01/12 12:23:51;;;;;;;1.73;1.20;;;10.10;99.90;;;;;;4989987;28;20073;-81
2023/01/12 12:26:26;;;;;;;3.00;1.58;;;10.30;99.90;;;;;;4993501;28;20022;-81
2023/01/12 12:28:55;;;;;;;2.45;1.10;;;10.00;99.90;;;;;;5002582;28;20049;-82
2023/01/12 12:31:33;;;;;;;2.58;1.02;;;10.00;99.90;;;;;;5050567;28;20025;-81
2023/01/12 12:34:29;;;;;;;2.50;1.40;;;10.30;99.90;;;;;;5048839;28;20056;-81
2023/01/12 12:36:57;;;;;;;4.22;2.40;;;10.30;99.90;;;;;;5056228;28;20036;-86
2023/01/12 12:39:38;;;;;;;3.80;2.55;;;10.40;99.90;;;;;;5049330;28;20056;-82
2023/01/12 12:45:24;;;;;;;6.55;2.53;;;10.50;99.90;;;;;;5043169;28;20047;-82
2023/01/12 12:47:57;;;;;;;6.00;2.58;;;10.70;99.90;;;;;;5039345;28;20119;-84
2023/01/12 12:50:32;;;;;;;4.20;2.17;;;10.70;99.90;;;;;;5048551;28;20060;-82
2023/01/12 12:53:15;;;;;;;5.88;1.77;;;10.50;99.90;;;;;;5048410;28;20108;-81
2023/01/12 12:55:42;;;;;;;3.97;1.92;;;10.50;99.90;;;;;;5052257;28;20028;-81
2023/01/12 12:58:39;;;;;;;4.30;1.55;;;10.70;99.90;;;;;;5047466;28;20040;-81
2023/01/12 13:01:20;;;;;;;2.30;1.60;;;10.50;99.90;;;;;;5038461;28;20029;-81
2023/01/12 13:03:52;;;;;;;2.22;1.30;;;10.40;99.90;;;;;;5047746;28;20075;-82
2023/01/12 13:06:30;;;;;;;3.40;1.48;;;10.50;99.90;;;;;;5045493;28;20029;-81
2023/01/12 13:09:15;;;;;;;4.28;1.20;;;10.70;99.90;;;;;;5043070;28;20051;-80
2023/01/12 13:12:14;;;;;;;5.90;1.20;;;11.00;99.90;;;;;;5029541;28;20041;-79
2023/01/12 13:14:41;;;;;;;3.92;1.27;;;10.70;99.90;;;;;;5033108;28;20260;-80
2023/01/12 13:17:19;;;;;;;1.60;1.20;;;10.60;99.90;;;;;;5042019;28;20128;-80
2023/01/12 13:19:46;;;;;;;3.97;1.00;;;10.70;99.90;;;;;;5041384;28;20063;-80
2023/01/12 13:22:29;;;;;;;2.90;1.30;;;10.50;99.90;;;;;;5046779;28;20503;-80
2023/01/12 13:25:08;;;;;;;3.70;1.35;;;10.50;99.90;;;;;;5035010;28;20026;-79
2023/01/12 13:27:55;;;;;;;3.13;1.20;;;10.70;99.90;;;;;;5050134;28;20082;-79
2023/01/12 13:30:21;;;;;;;2.03;1.13;;;10.90;99.90;;;;;;5051264;28;20059;-79
2023/01/12 13:32:59;;;;;;;3.38;1.65;;;10.70;99.90;;;;;;5042225;28;20511;-79
2023/01/12 13:35:45;;;;;;;3.72;1.95;;;10.60;99.90;;;;;;5032484;28;20029;-79
2023/01/12 13:38:20;;;;;;;4.07;1.55;;;10.90;99.90;;;;;;5050471;28;20041;-79
2023/01/12 13:40:46;;;;;;;5.95;1.80;;;10.70;99.90;;;;;;5046231;28;20400;-79
2023/01/12 13:43:27;;;;;;;4.05;1.85;;;10.90;99.90;;;;;;5045663;28;20041;-80
2023/01/12 13:46:00;;;;;;;4.68;1.42;;;11.00;99.90;;;;;;5051400;28;20025;-79
2023/01/12 13:48:28;;;;;;;3.03;1.40;;;11.00;99.90;;;;;;5051004;28;20029;-80